createdAt,value
2018-02-18T00:00:33.627Z,0.94
2018-02-18T00:01:33.638Z,0.91
2018-02-18T00:02:33.602Z,0.86
2018-02-18T00:03:54.733Z,0.94
2018-02-18T00:04:33.628Z,0.93
2018-02-18T00:05:33.602Z,0.94
2018-02-18T00:06:33.590Z,0.97
2018-02-18T00:07:33.597Z,0.96
2018-02-18T00:08:33.587Z,1.02
2018-02-18T00:09:54.631Z,0.94
2018-02-18T00:10:33.639Z,1.09
2018-02-18T00:11:33.598Z,1.04
2018-02-18T00:12:33.590Z,1.02
2018-02-18T00:13:33.668Z,0.97
2018-02-18T00:14:33.571Z,0.93
2018-02-18T00:15:54.593Z,0.91
2018-02-18T00:16:33.574Z,0.97
2018-02-18T00:17:33.576Z,0.96
2018-02-18T00:18:33.562Z,0.96
2018-02-18T00:19:33.728Z,0.96
2018-02-18T00:20:33.553Z,0.93
2018-02-18T00:21:55.177Z,1.02
2018-02-18T00:22:33.561Z,1.05
2018-02-18T00:23:33.541Z,1.12
2018-02-18T00:24:33.570Z,1.16
2018-02-18T00:25:33.547Z,1.18
2018-02-18T00:26:33.529Z,1.27
2018-02-18T00:27:54.550Z,1.30
2018-02-18T00:28:33.544Z,1.40
2018-02-18T00:29:33.516Z,1.37
2018-02-18T00:30:33.527Z,1.36
2018-02-18T00:31:33.516Z,1.37
2018-02-18T00:32:33.520Z,1.33
2018-02-18T00:33:54.515Z,1.36
2018-02-18T00:34:33.572Z,1.36
2018-02-18T00:35:33.502Z,1.32
2018-02-18T00:36:33.498Z,1.34
2018-02-18T00:37:33.510Z,1.42
2018-02-18T00:38:33.891Z,1.32
2018-02-18T00:39:54.517Z,1.42
2018-02-18T00:40:34.107Z,1.47
2018-02-18T00:41:33.498Z,1.55
2018-02-18T00:42:33.485Z,1.50
2018-02-18T00:43:33.726Z,1.48
2018-02-18T00:44:33.494Z,1.52
2018-02-18T00:45:54.480Z,1.58
2018-02-18T00:46:34.158Z,1.58
2018-02-18T00:47:33.476Z,1.55
2018-02-18T00:48:34.173Z,1.58
2018-02-18T00:49:33.458Z,1.51
2018-02-18T00:50:33.467Z,1.45
2018-02-18T00:51:54.468Z,1.33
2018-02-18T00:52:34.346Z,1.40
2018-02-18T00:53:33.464Z,1.30
2018-02-18T00:54:33.466Z,1.40
2018-02-18T00:55:33.434Z,1.34
2018-02-18T00:56:33.438Z,1.37
2018-02-18T00:57:54.459Z,1.40
2018-02-18T00:58:33.437Z,1.30
2018-02-18T00:59:33.443Z,1.26
2018-02-18T01:00:33.434Z,1.26
2018-02-18T01:01:33.439Z,1.23
2018-02-18T01:02:33.433Z,1.18
2018-02-18T01:03:54.457Z,1.24
2018-02-18T01:04:33.408Z,1.22
2018-02-18T01:05:33.428Z,1.15
2018-02-18T01:06:33.458Z,1.16
2018-02-18T01:07:33.397Z,1.14
2018-02-18T01:08:33.393Z,1.05
2018-02-18T01:09:54.402Z,1.14
2018-02-18T01:10:33.395Z,1.12
2018-02-18T01:11:33.383Z,1.05
2018-02-18T01:12:33.420Z,1.08
2018-02-18T01:13:33.394Z,1.08
2018-02-18T01:14:33.851Z,1.08
2018-02-18T01:15:54.378Z,0.97
2018-02-18T01:16:33.702Z,1.02
2018-02-18T01:17:33.479Z,1.11
2018-02-18T01:18:33.421Z,1.11
2018-02-18T01:19:33.361Z,1.05
2018-02-18T01:20:34.199Z,1.04
2018-02-18T01:21:54.380Z,0.98
2018-02-18T01:22:33.350Z,0.90
2018-02-18T01:23:33.354Z,0.93
2018-02-18T01:24:33.347Z,0.94
2018-02-18T01:25:33.363Z,0.96
2018-02-18T01:26:33.342Z,0.91
2018-02-18T01:27:54.982Z,0.96
2018-02-18T01:28:33.350Z,0.94
2018-02-18T01:29:33.348Z,0.93
2018-02-18T01:30:33.452Z,0.86
2018-02-18T01:31:33.461Z,0.88
2018-02-18T01:32:33.324Z,0.91
2018-02-18T01:33:54.319Z,0.86
2018-02-18T01:34:33.315Z,0.73
2018-02-18T01:35:33.328Z,0.75
2018-02-18T01:36:33.384Z,0.68
2018-02-18T01:37:33.326Z,0.76
2018-02-18T01:38:33.312Z,0.69
2018-02-18T01:39:54.333Z,0.78
2018-02-18T01:40:33.315Z,0.72
2018-02-18T01:41:33.324Z,0.79
2018-02-18T01:42:33.292Z,0.76
2018-02-18T01:43:33.285Z,0.70
2018-02-18T01:44:33.289Z,0.72
2018-02-18T01:45:54.278Z,0.62
2018-02-18T01:46:33.272Z,0.66
2018-02-18T01:47:33.293Z,0.58
2018-02-18T01:48:33.313Z,0.75
2018-02-18T01:49:33.711Z,0.76
2018-02-18T01:50:33.292Z,0.90
2018-02-18T01:51:54.475Z,0.90
2018-02-18T01:52:33.254Z,0.91
2018-02-18T01:53:33.269Z,0.90
2018-02-18T01:54:33.271Z,0.88
2018-02-18T01:55:33.247Z,0.87
2018-02-18T01:56:33.244Z,0.94
2018-02-18T01:57:54.293Z,0.87
2018-02-18T01:58:33.234Z,0.94
2018-02-18T01:59:33.853Z,0.79
2018-02-18T02:00:33.235Z,0.76
2018-02-18T02:01:33.261Z,0.88
2018-02-18T02:02:33.268Z,0.79
2018-02-18T02:03:54.220Z,0.80
2018-02-18T02:04:33.219Z,0.73
2018-02-18T02:05:33.373Z,0.69
2018-02-18T02:06:33.222Z,0.73
2018-02-18T02:07:33.534Z,0.72
2018-02-18T02:08:33.201Z,0.75
2018-02-18T02:09:54.217Z,0.72
2018-02-18T02:10:33.194Z,0.65
2018-02-18T02:11:33.217Z,0.65
2018-02-18T02:12:33.751Z,0.53
2018-02-18T02:13:33.182Z,0.70
2018-02-18T02:14:33.187Z,0.66
2018-02-18T02:15:54.261Z,0.58
2018-02-18T02:16:33.178Z,0.61
2018-02-18T02:17:33.175Z,0.51
2018-02-18T02:18:33.173Z,0.51
2018-02-18T02:19:33.914Z,0.53
2018-02-18T02:20:33.163Z,0.62
2018-02-18T02:21:54.170Z,0.65
2018-02-18T02:22:33.160Z,0.62
2018-02-18T02:23:34.071Z,0.61
2018-02-18T02:24:33.147Z,0.66
2018-02-18T02:25:33.268Z,0.60
2018-02-18T02:26:33.149Z,0.51
2018-02-18T02:27:55.186Z,0.68
2018-02-18T02:28:33.130Z,0.49
2018-02-18T02:29:33.390Z,0.62
2018-02-18T02:30:33.127Z,0.65
2018-02-18T02:31:33.117Z,0.61
2018-02-18T02:32:34.027Z,0.60
2018-02-18T02:33:54.107Z,0.50
2018-02-18T02:34:33.839Z,0.55
2018-02-18T02:35:33.101Z,0.58
2018-02-18T02:36:33.771Z,0.62
2018-02-18T02:37:33.671Z,0.66
2018-02-18T02:38:34.067Z,0.61
2018-02-18T02:39:54.091Z,0.58
2018-02-18T02:40:33.390Z,0.65
2018-02-18T02:41:33.093Z,0.68
2018-02-18T02:42:33.484Z,0.58
2018-02-18T02:43:33.079Z,0.69
2018-02-18T02:44:33.082Z,0.65
2018-02-18T02:45:54.070Z,0.68
2018-02-18T02:46:33.070Z,0.70
2018-02-18T02:47:33.072Z,0.61
2018-02-18T02:48:33.102Z,0.65
2018-02-18T02:49:33.642Z,0.60
2018-02-18T02:50:33.063Z,0.55
2018-02-18T02:51:55.251Z,0.49
2018-02-18T02:52:33.053Z,0.50
2018-02-18T02:53:33.049Z,0.53
2018-02-18T02:54:33.042Z,0.44
2018-02-18T02:55:33.047Z,0.50
2018-02-18T02:56:33.034Z,0.55
2018-02-18T02:57:54.298Z,0.41
2018-02-18T02:58:33.042Z,0.41
2018-02-18T02:59:33.501Z,0.41
2018-02-18T03:00:33.024Z,0.42
2018-02-18T03:01:33.104Z,0.47
2018-02-18T03:02:33.619Z,0.47
2018-02-18T03:03:54.254Z,0.49
2018-02-18T03:04:34.021Z,0.50
2018-02-18T03:05:33.007Z,0.49
2018-02-18T03:06:33.855Z,0.49
2018-02-18T03:07:33.011Z,0.51
2018-02-18T03:08:33.258Z,0.42
2018-02-18T03:09:53.989Z,0.32
2018-02-18T03:10:33.789Z,0.28
2018-02-18T03:11:32.988Z,0.31
2018-02-18T03:12:33.101Z,0.32
2018-02-18T03:13:32.975Z,0.32
2018-02-18T03:14:32.985Z,0.28
2018-02-18T03:15:53.985Z,0.15
2018-02-18T03:16:33.139Z,0.24
2018-02-18T03:17:33.933Z,0.28
2018-02-18T03:18:33.023Z,0.14
2018-02-18T03:19:32.963Z,0.18
2018-02-18T03:20:33.249Z,0.33
2018-02-18T03:21:53.955Z,0.28
2018-02-18T03:22:32.955Z,0.24
2018-02-18T03:23:32.938Z,0.28
2018-02-18T03:24:33.387Z,0.21
2018-02-18T03:25:32.940Z,0.15
2018-02-18T03:26:32.947Z,0.26
2018-02-18T03:27:53.950Z,0.26
2018-02-18T03:28:33.260Z,0.28
2018-02-18T03:29:33.326Z,0.18
2018-02-18T03:30:33.175Z,0.28
2018-02-18T03:31:32.906Z,0.20
2018-02-18T03:32:32.909Z,0.17
2018-02-18T03:33:53.912Z,0.23
2018-02-18T03:34:32.912Z,0.17
2018-02-18T03:35:32.906Z,0.20
2018-02-18T03:36:33.256Z,0.21
2018-02-18T03:37:32.911Z,0.14
2018-02-18T03:38:33.780Z,0.02
2018-02-18T03:39:53.941Z,0.04
2018-02-18T03:40:32.873Z,0.21
2018-02-18T03:41:32.883Z,0.21
2018-02-18T03:42:33.197Z,0.20
2018-02-18T03:43:32.857Z,0.14
2018-02-18T03:44:33.048Z,0.20
2018-02-18T03:45:53.867Z,0.14
2018-02-18T03:46:33.593Z,0.20
2018-02-18T03:47:32.868Z,0.23
2018-02-18T03:48:33.142Z,0.15
2018-02-18T03:49:32.853Z,0.15
2018-02-18T03:50:33.153Z,0.20
2018-02-18T03:51:53.861Z,0.20
2018-02-18T03:52:33.177Z,0.15
2018-02-18T03:53:32.841Z,0.07
2018-02-18T03:54:32.836Z,0.08
2018-02-18T03:55:33.713Z,0.13
2018-02-18T03:56:33.294Z,0.07
2018-02-18T03:57:54.511Z,0.11
2018-02-18T03:58:32.825Z,0.07
2018-02-18T03:59:33.123Z,0.15
2018-02-18T04:00:32.818Z,0.08
2018-02-18T04:01:34.212Z,0.08
2018-02-18T04:02:32.808Z,0.08
2018-02-18T04:03:54.171Z,0.04
2018-02-18T04:04:32.793Z,0.04
2018-02-18T04:05:33.067Z,0.08
2018-02-18T04:06:32.787Z,0.04
2018-02-18T04:07:32.783Z,0.10
2018-02-18T04:08:32.770Z,0.14
2018-02-18T04:09:54.460Z,0.13
2018-02-18T04:10:32.757Z,0.10
2018-02-18T04:11:32.774Z,0.10
2018-02-18T04:12:34.307Z,0.04
2018-02-18T04:13:32.786Z,0.17
2018-02-18T04:14:32.757Z,0.17
2018-02-18T04:15:53.755Z,0.15
2018-02-18T04:16:33.850Z,0.21
2018-02-18T04:17:32.879Z,0.07
2018-02-18T04:18:32.806Z,0.10
2018-02-18T04:19:32.733Z,0.04
2018-02-18T04:20:32.891Z,0.08
2018-02-18T04:21:53.724Z,-0.01
2018-02-18T04:22:33.075Z,-0.01
2018-02-18T04:23:32.728Z,-0.03
2018-02-18T04:24:33.164Z,-0.04
2018-02-18T04:25:32.873Z,-0.04
2018-02-18T04:26:33.257Z,-0.03
2018-02-18T04:27:53.716Z,0.00
2018-02-18T04:28:32.700Z,-0.03
2018-02-18T04:29:33.753Z,-0.08
2018-02-18T04:30:32.691Z,-0.03
2018-02-18T04:31:33.249Z,-0.05
2018-02-18T04:32:32.675Z,-0.01
2018-02-18T04:33:53.706Z,-0.15
2018-02-18T04:34:32.679Z,-0.07
2018-02-18T04:35:32.769Z,-0.05
2018-02-18T04:36:32.666Z,-0.05
2018-02-18T04:37:33.600Z,-0.11
2018-02-18T04:38:32.645Z,-0.04
2018-02-18T04:39:53.807Z,-0.07
2018-02-18T04:40:32.657Z,-0.15
2018-02-18T04:41:32.650Z,-0.10
2018-02-18T04:42:32.640Z,-0.10
2018-02-18T04:43:32.641Z,-0.16
2018-02-18T04:44:32.687Z,-0.15
2018-02-18T04:45:53.640Z,-0.19
2018-02-18T04:46:33.272Z,-0.15
2018-02-18T04:47:32.628Z,-0.23
2018-02-18T04:48:32.630Z,-0.25
2018-02-18T04:49:32.629Z,-0.23
2018-02-18T04:50:33.490Z,-0.22
2018-02-18T04:51:53.613Z,-0.26
2018-02-18T04:52:33.010Z,-0.34
2018-02-18T04:53:32.607Z,-0.25
2018-02-18T04:54:32.979Z,-0.22
2018-02-18T04:55:32.607Z,-0.21
2018-02-18T04:56:32.600Z,-0.19
2018-02-18T04:57:53.598Z,-0.18
2018-02-18T04:58:32.863Z,-0.25
2018-02-18T04:59:33.180Z,-0.25
2018-02-18T05:00:32.580Z,-0.28
2018-02-18T05:01:32.580Z,-0.18
2018-02-18T05:02:32.547Z,-0.23
2018-02-18T05:03:54.754Z,-0.31
2018-02-18T05:04:32.567Z,-0.31
2018-02-18T05:05:32.964Z,-0.23
2018-02-18T05:06:32.555Z,-0.31
2018-02-18T05:07:33.616Z,-0.34
2018-02-18T05:08:32.541Z,-0.37
2018-02-18T05:09:53.872Z,-0.31
2018-02-18T05:10:32.540Z,-0.31
2018-02-18T05:11:32.743Z,-0.29
2018-02-18T05:12:32.527Z,-0.34
2018-02-18T05:13:32.541Z,-0.29
2018-02-18T05:14:32.522Z,-0.29
2018-02-18T05:15:53.743Z,-0.22
2018-02-18T05:16:33.056Z,-0.18
2018-02-18T05:17:32.508Z,-0.23
2018-02-18T05:18:32.632Z,-0.29
2018-02-18T05:19:32.490Z,-0.39
2018-02-18T05:20:32.489Z,-0.29
2018-02-18T05:21:53.500Z,-0.31
2018-02-18T05:22:33.004Z,-0.23
2018-02-18T05:23:33.016Z,-0.29
2018-02-18T05:24:32.801Z,-0.40
2018-02-18T05:25:32.472Z,-0.36
2018-02-18T05:26:32.530Z,-0.39
2018-02-18T05:27:53.470Z,-0.39
2018-02-18T05:28:32.469Z,-0.42
2018-02-18T05:29:32.941Z,-0.34
2018-02-18T05:30:32.455Z,-0.43
2018-02-18T05:31:32.465Z,-0.43
2018-02-18T05:32:32.450Z,-0.40
2018-02-18T05:33:53.454Z,-0.36
2018-02-18T05:34:32.442Z,-0.39
2018-02-18T05:35:32.723Z,-0.37
2018-02-18T05:36:32.431Z,-0.46
2018-02-18T05:37:32.708Z,-0.39
2018-02-18T05:38:32.416Z,-0.46
2018-02-18T05:39:53.419Z,-0.49
2018-02-18T05:40:32.416Z,-0.46
2018-02-18T05:41:32.417Z,-0.51
2018-02-18T05:42:32.404Z,-0.43
2018-02-18T05:43:33.097Z,-0.47
2018-02-18T05:44:32.490Z,-0.37
2018-02-18T05:45:53.418Z,-0.42
2018-02-18T05:46:32.399Z,-0.39
2018-02-18T05:47:32.421Z,-0.42
2018-02-18T05:48:32.396Z,-0.52
2018-02-18T05:49:32.383Z,-0.58
2018-02-18T05:50:32.435Z,-0.51
2018-02-18T05:51:53.395Z,-0.47
2018-02-18T05:52:32.364Z,-0.58
2018-02-18T05:53:32.369Z,-0.46
2018-02-18T05:54:32.373Z,-0.46
2018-02-18T05:55:32.357Z,-0.39
2018-02-18T05:56:32.848Z,-0.40
2018-02-18T05:57:53.527Z,-0.43
2018-02-18T05:58:32.552Z,-0.44
2018-02-18T05:59:32.359Z,-0.44
2018-02-18T06:00:32.349Z,-0.49
2018-02-18T06:01:32.331Z,-0.44
2018-02-18T06:02:32.335Z,-0.42
2018-02-18T06:03:53.673Z,-0.46
2018-02-18T06:04:32.665Z,-0.46
2018-02-18T06:05:32.329Z,-0.49
2018-02-18T06:06:32.319Z,-0.43
2018-02-18T06:07:32.308Z,-0.54
2018-02-18T06:08:32.296Z,-0.54
2018-02-18T06:09:53.305Z,-0.52
2018-02-18T06:10:32.810Z,-0.46
2018-02-18T06:11:32.363Z,-0.57
2018-02-18T06:12:32.377Z,-0.49
2018-02-18T06:13:32.282Z,-0.57
2018-02-18T06:14:32.270Z,-0.46
2018-02-18T06:15:53.280Z,-0.49
2018-02-18T06:16:32.265Z,-0.34
2018-02-18T06:17:32.271Z,-0.52
2018-02-18T06:18:32.260Z,-0.46
2018-02-18T06:19:32.351Z,-0.49
2018-02-18T06:20:32.260Z,-0.46
2018-02-18T06:21:53.263Z,-0.57
2018-02-18T06:22:32.272Z,-0.46
2018-02-18T06:23:32.301Z,-0.43
2018-02-18T06:24:32.235Z,-0.54
2018-02-18T06:25:32.266Z,-0.57
2018-02-18T06:26:32.248Z,-0.36
2018-02-18T06:27:53.242Z,-0.47
2018-02-18T06:28:32.225Z,-0.46
2018-02-18T06:29:32.229Z,-0.62
2018-02-18T06:30:32.288Z,-0.54
2018-02-18T06:31:32.580Z,-0.46
2018-02-18T06:32:32.219Z,-0.57
2018-02-18T06:33:53.219Z,-0.58
2018-02-18T06:34:32.190Z,-0.47
2018-02-18T06:35:32.191Z,-0.57
2018-02-18T06:36:32.822Z,-0.37
2018-02-18T06:37:32.197Z,-0.42
2018-02-18T06:38:32.648Z,-0.54
2018-02-18T06:39:53.206Z,-0.51
2018-02-18T06:40:32.180Z,-0.43
2018-02-18T06:41:32.169Z,-0.57
2018-02-18T06:42:32.173Z,-0.52
2018-02-18T06:43:32.155Z,-0.55
2018-02-18T06:44:32.660Z,-0.54
2018-02-18T06:45:53.187Z,-0.40
2018-02-18T06:46:32.675Z,-0.49
2018-02-18T06:47:32.142Z,-0.44
2018-02-18T06:48:32.149Z,-0.40
2018-02-18T06:49:32.150Z,-0.42
2018-02-18T06:50:32.143Z,-0.34
2018-02-18T06:51:53.573Z,-0.36
2018-02-18T06:52:32.741Z,-0.40
2018-02-18T06:53:32.134Z,-0.33
2018-02-18T06:54:32.146Z,-0.43
2018-02-18T06:55:32.118Z,-0.37
2018-02-18T06:56:32.119Z,-0.42
2018-02-18T06:57:53.136Z,-0.40
2018-02-18T06:58:32.262Z,-0.42
2018-02-18T06:59:33.502Z,-0.40
2018-02-18T07:00:32.106Z,-0.42
2018-02-18T07:01:32.130Z,-0.43
2018-02-18T07:02:32.103Z,-0.33
2018-02-18T07:03:53.092Z,-0.37
2018-02-18T07:04:32.098Z,-0.34
2018-02-18T07:05:32.087Z,-0.31
2018-02-18T07:06:32.459Z,-0.26
2018-02-18T07:07:32.071Z,-0.23
2018-02-18T07:08:32.073Z,-0.19
2018-02-18T07:09:53.071Z,-0.25
2018-02-18T07:10:32.787Z,-0.22
2018-02-18T07:11:32.648Z,-0.11
2018-02-18T07:12:32.691Z,-0.07
2018-02-18T07:13:32.569Z,-0.15
2018-02-18T07:14:32.040Z,-0.07
2018-02-18T07:15:53.041Z,-0.07
2018-02-18T07:16:32.049Z,-0.04
2018-02-18T07:17:32.694Z,-0.03
2018-02-18T07:18:32.279Z,-0.05
2018-02-18T07:19:32.030Z,0.02
2018-02-18T07:20:32.108Z,0.04
2018-02-18T07:21:53.016Z,0.07
2018-02-18T07:22:32.021Z,0.04
2018-02-18T07:23:32.227Z,0.13
2018-02-18T07:24:32.145Z,0.10
2018-02-18T07:25:31.995Z,0.07
2018-02-18T07:26:32.034Z,0.17
2018-02-18T07:27:52.992Z,0.20
2018-02-18T07:28:31.996Z,0.20
2018-02-18T07:29:31.986Z,0.08
2018-02-18T07:30:32.063Z,0.17
2018-02-18T07:31:31.978Z,0.17
2018-02-18T07:32:32.249Z,0.18
2018-02-18T07:33:52.988Z,0.24
2018-02-18T07:34:31.961Z,0.36
2018-02-18T07:35:31.978Z,0.32
2018-02-18T07:36:32.426Z,0.35
2018-02-18T07:37:31.953Z,0.53
2018-02-18T07:38:32.102Z,0.69
2018-02-18T07:39:52.963Z,1.05
2018-02-18T07:40:31.955Z,1.44
2018-02-18T07:41:31.945Z,2.14
2018-02-18T07:42:31.943Z,2.52
2018-02-18T07:43:31.925Z,2.77
2018-02-18T07:44:31.923Z,2.97
2018-02-18T07:45:52.940Z,2.64
2018-02-18T07:46:31.941Z,3.52
2018-02-18T07:47:31.956Z,3.36
2018-02-18T07:48:31.929Z,3.23
2018-02-18T07:49:31.936Z,3.65
2018-02-18T07:50:32.007Z,3.90
2018-02-18T07:51:52.927Z,4.05
2018-02-18T07:52:31.913Z,4.85
2018-02-18T07:53:31.919Z,4.92
2018-02-18T07:54:31.911Z,5.31
2018-02-18T07:55:31.913Z,5.30
2018-02-18T07:56:31.899Z,5.30
2018-02-18T07:57:53.048Z,5.15
2018-02-18T07:58:31.884Z,5.91
2018-02-18T07:59:31.917Z,5.74
2018-02-18T08:00:32.130Z,5.46
2018-02-18T08:01:32.014Z,4.41
2018-02-18T08:02:31.877Z,5.12
2018-02-18T08:03:52.891Z,5.33
2018-02-18T08:04:32.708Z,5.72
2018-02-18T08:05:31.882Z,6.19
2018-02-18T08:06:32.104Z,6.51
2018-02-18T08:07:31.933Z,6.33
2018-02-18T08:08:31.886Z,7.15
2018-02-18T08:09:52.900Z,6.41
2018-02-18T08:10:31.866Z,6.73
2018-02-18T08:11:31.921Z,6.40
2018-02-18T08:12:32.159Z,6.33
2018-02-18T08:13:31.868Z,6.77
2018-02-18T08:14:32.316Z,7.37
2018-02-18T08:15:52.877Z,7.42
2018-02-18T08:16:31.865Z,7.95
2018-02-18T08:17:31.886Z,7.43
2018-02-18T08:18:32.712Z,7.82
2018-02-18T08:19:31.872Z,7.27
2018-02-18T08:20:32.207Z,8.02
2018-02-18T08:21:52.976Z,6.58
2018-02-18T08:22:32.140Z,7.25
2018-02-18T08:23:31.866Z,7.72
2018-02-18T08:24:31.882Z,8.36
2018-02-18T08:25:31.876Z,9.05
2018-02-18T08:26:31.879Z,9.21
2018-02-18T08:27:52.887Z,8.80
2018-02-18T08:28:32.118Z,7.80
2018-02-18T08:29:31.870Z,7.85
2018-02-18T08:30:31.888Z,8.00
2018-02-18T08:31:31.888Z,7.82
2018-02-18T08:32:31.894Z,8.12
2018-02-18T08:33:53.317Z,8.05
2018-02-18T08:34:31.925Z,8.07
2018-02-18T08:35:32.292Z,8.20
2018-02-18T08:36:31.934Z,9.01
2018-02-18T08:37:31.901Z,10.01
2018-02-18T08:38:31.888Z,10.02
2018-02-18T08:39:53.923Z,9.17
2018-02-18T08:40:31.895Z,9.32
2018-02-18T08:41:32.164Z,9.18
2018-02-18T08:42:33.301Z,9.17
2018-02-18T08:43:32.710Z,9.32
2018-02-18T08:44:32.708Z,9.35
2018-02-18T08:45:52.910Z,9.64
2018-02-18T08:46:32.724Z,10.44
2018-02-18T08:47:31.916Z,10.40
2018-02-18T08:48:33.045Z,10.76
2018-02-18T08:49:31.919Z,10.99
2018-02-18T08:50:32.230Z,10.91
2018-02-18T08:51:52.946Z,11.10
2018-02-18T08:52:32.244Z,10.73
2018-02-18T08:53:31.961Z,9.17
2018-02-18T08:54:31.944Z,10.63
2018-02-18T08:55:31.934Z,11.06
2018-02-18T08:56:32.749Z,11.10
2018-02-18T08:57:52.972Z,10.51
2018-02-18T08:58:33.142Z,10.15
2018-02-18T08:59:31.959Z,10.12
2018-02-18T09:00:33.131Z,10.91
2018-02-18T09:01:31.983Z,10.25
2018-02-18T09:02:32.669Z,10.34
2018-02-18T09:03:52.970Z,10.68
2018-02-18T09:04:31.964Z,9.57
2018-02-18T09:05:33.366Z,9.96
2018-02-18T09:06:31.991Z,10.42
2018-02-18T09:07:32.327Z,11.39
2018-02-18T09:08:31.986Z,10.63
2018-02-18T09:09:52.999Z,11.37
2018-02-18T09:10:31.998Z,10.59
2018-02-18T09:11:34.125Z,10.79
2018-02-18T09:12:32.264Z,11.17
2018-02-18T09:13:33.219Z,11.43
2018-02-18T09:14:32.014Z,10.36
2018-02-18T09:15:53.157Z,10.17
2018-02-18T09:16:33.039Z,10.17
2018-02-18T09:17:32.049Z,9.28
2018-02-18T09:18:32.032Z,9.93
2018-02-18T09:19:32.049Z,11.22
2018-02-18T09:20:32.239Z,11.24
2018-02-18T09:21:53.166Z,12.01
2018-02-18T09:22:32.063Z,11.58
2018-02-18T09:23:32.066Z,11.72
2018-02-18T09:24:32.383Z,10.99
2018-02-18T09:25:32.059Z,11.33
2018-02-18T09:26:32.130Z,11.58
2018-02-18T09:27:53.210Z,10.02
2018-02-18T09:28:32.076Z,11.11
2018-02-18T09:29:32.112Z,11.70
2018-02-18T09:30:32.768Z,12.07
2018-02-18T09:31:32.107Z,12.34
2018-02-18T09:32:32.145Z,11.78
2018-02-18T09:33:53.134Z,12.64
2018-02-18T09:34:32.120Z,12.29
2018-02-18T09:35:32.107Z,12.37
2018-02-18T09:36:32.136Z,11.83
2018-02-18T09:37:32.226Z,11.65
2018-02-18T09:38:32.122Z,11.83
2018-02-18T09:39:54.194Z,10.25
2018-02-18T09:40:32.129Z,10.02
2018-02-18T09:41:32.128Z,10.17
2018-02-18T09:42:32.131Z,10.15
2018-02-18T09:43:32.142Z,10.18
2018-02-18T09:44:32.525Z,10.52
2018-02-18T09:45:53.177Z,11.21
2018-02-18T09:46:32.149Z,11.95
2018-02-18T09:47:32.175Z,11.86
2018-02-18T09:48:32.181Z,12.90
2018-02-18T09:49:33.081Z,12.97
2018-02-18T09:50:32.293Z,13.60
2018-02-18T09:51:53.221Z,13.45
2018-02-18T09:52:32.222Z,13.51
2018-02-18T09:53:32.226Z,12.87
2018-02-18T09:54:32.262Z,12.92
2018-02-18T09:55:32.240Z,12.04
2018-02-18T09:56:32.225Z,12.68
2018-02-18T09:57:53.270Z,11.96
2018-02-18T09:58:32.596Z,11.64
2018-02-18T09:59:33.753Z,12.02
2018-02-18T10:00:32.245Z,12.47
2018-02-18T10:01:32.240Z,12.04
2018-02-18T10:02:32.257Z,12.71
2018-02-18T10:03:53.273Z,12.72
2018-02-18T10:04:32.325Z,12.54
2018-02-18T10:05:32.276Z,11.47
2018-02-18T10:06:32.289Z,10.86
2018-02-18T10:07:32.297Z,10.81
2018-02-18T10:08:32.318Z,10.51
2018-02-18T10:09:53.342Z,10.79
2018-02-18T10:10:32.825Z,10.94
2018-02-18T10:11:32.451Z,12.01
2018-02-18T10:12:33.009Z,12.01
2018-02-18T10:13:32.331Z,12.75
2018-02-18T10:14:32.357Z,12.19
2018-02-18T10:15:53.352Z,11.29
2018-02-18T10:16:33.470Z,11.02
2018-02-18T10:17:32.357Z,11.80
2018-02-18T10:18:32.366Z,11.67
2018-02-18T10:19:33.186Z,12.41
2018-02-18T10:20:32.398Z,12.92
2018-02-18T10:21:53.482Z,11.88
2018-02-18T10:22:32.485Z,11.90
2018-02-18T10:23:32.392Z,12.14
2018-02-18T10:24:32.409Z,12.10
2018-02-18T10:25:32.402Z,12.34
2018-02-18T10:26:32.418Z,12.09
2018-02-18T10:27:54.033Z,10.68
2018-02-18T10:28:32.462Z,10.53
2018-02-18T10:29:32.442Z,10.34
2018-02-18T10:30:32.447Z,9.94
2018-02-18T10:31:32.453Z,10.55
2018-02-18T10:32:32.455Z,10.14
2018-02-18T10:33:53.484Z,10.42
2018-02-18T10:34:34.091Z,10.81
2018-02-18T10:35:32.484Z,10.92
2018-02-18T10:36:32.500Z,11.58
2018-02-18T10:37:32.528Z,11.60
2018-02-18T10:38:32.508Z,11.25
2018-02-18T10:39:53.537Z,11.82
2018-02-18T10:40:32.582Z,12.59
2018-02-18T10:41:32.953Z,13.25
2018-02-18T10:42:32.543Z,13.55
2018-02-18T10:43:32.567Z,13.42
2018-02-18T10:44:33.037Z,12.09
2018-02-18T10:45:53.595Z,12.41
2018-02-18T10:46:32.560Z,12.71
2018-02-18T10:47:32.564Z,12.75
2018-02-18T10:48:32.579Z,12.90
2018-02-18T10:49:32.919Z,13.39
2018-02-18T10:50:32.616Z,13.84
2018-02-18T10:51:53.633Z,12.72
2018-02-18T10:52:32.887Z,12.92
2018-02-18T10:53:32.634Z,12.70
2018-02-18T10:54:33.887Z,13.32
2018-02-18T10:55:32.634Z,13.48
2018-02-18T10:56:32.640Z,12.97
2018-02-18T10:57:53.671Z,12.35
2018-02-18T10:58:32.667Z,12.12
2018-02-18T10:59:32.680Z,12.38
2018-02-18T11:00:32.700Z,12.67
2018-02-18T11:01:32.710Z,11.62
2018-02-18T11:02:32.724Z,11.61
2018-02-18T11:03:53.762Z,11.83
2018-02-18T11:04:32.743Z,11.79
2018-02-18T11:05:32.716Z,12.16
2018-02-18T11:06:32.754Z,12.19
2018-02-18T11:07:32.781Z,12.20
2018-02-18T11:08:32.778Z,12.31
2018-02-18T11:09:53.801Z,12.79
2018-02-18T11:10:32.829Z,12.31
2018-02-18T11:11:33.544Z,12.62
2018-02-18T11:12:32.792Z,12.83
2018-02-18T11:13:32.802Z,12.53
2018-02-18T11:14:32.806Z,12.60
2018-02-18T11:15:53.834Z,13.05
2018-02-18T11:16:32.831Z,13.03
2018-02-18T11:17:32.831Z,12.70
2018-02-18T11:18:32.849Z,13.08
2018-02-18T11:19:32.882Z,13.44
2018-02-18T11:20:32.897Z,13.67
2018-02-18T11:21:53.890Z,13.48
2018-02-18T11:22:32.995Z,13.33
2018-02-18T11:23:32.900Z,13.96
2018-02-18T11:24:32.896Z,13.82
2018-02-18T11:25:32.943Z,13.10
2018-02-18T11:26:32.943Z,12.62
2018-02-18T11:27:53.970Z,12.47
2018-02-18T11:28:32.982Z,11.79
2018-02-18T11:29:32.982Z,11.85
2018-02-18T11:30:32.977Z,12.53
2018-02-18T11:31:32.995Z,12.95
2018-02-18T11:32:33.012Z,12.96
2018-02-18T11:33:54.029Z,13.26
2018-02-18T11:34:33.069Z,12.65
2018-02-18T11:35:33.818Z,12.42
2018-02-18T11:36:33.057Z,12.42
2018-02-18T11:37:33.068Z,12.12
2018-02-18T11:38:33.066Z,12.23
2018-02-18T11:39:54.096Z,12.29
2018-02-18T11:40:33.087Z,12.50
2018-02-18T11:41:33.111Z,12.95
2018-02-18T11:42:33.118Z,12.95
2018-02-18T11:43:33.128Z,13.22
2018-02-18T11:44:33.138Z,12.78
2018-02-18T11:45:54.133Z,11.75
2018-02-18T11:46:33.136Z,11.57
2018-02-18T11:47:33.149Z,11.43
2018-02-18T11:48:33.157Z,10.97
2018-02-18T11:49:34.648Z,10.97
2018-02-18T11:50:33.239Z,11.03
2018-02-18T11:51:54.220Z,10.79
2018-02-18T11:52:33.207Z,11.11
2018-02-18T11:53:33.200Z,10.81
2018-02-18T11:54:33.219Z,11.09
2018-02-18T11:55:33.238Z,11.37
2018-02-18T11:56:33.236Z,11.11
2018-02-18T11:57:54.251Z,10.78
2018-02-18T11:58:33.250Z,11.55
2018-02-18T11:59:33.299Z,11.25
2018-02-18T12:00:33.286Z,11.62
2018-02-18T12:01:33.277Z,11.09
2018-02-18T12:02:33.291Z,11.67
2018-02-18T12:03:54.316Z,12.29
2018-02-18T12:04:33.323Z,12.60
2018-02-18T12:05:33.318Z,13.04
2018-02-18T12:06:33.327Z,13.17
2018-02-18T12:07:33.347Z,13.07
2018-02-18T12:08:33.345Z,12.42
2018-02-18T12:09:54.374Z,11.67
2018-02-18T12:10:33.359Z,12.21
2018-02-18T12:11:33.386Z,12.29
2018-02-18T12:12:33.364Z,11.90
2018-02-18T12:13:33.384Z,11.25
2018-02-18T12:14:33.398Z,10.44
2018-02-18T12:15:54.400Z,9.60
2018-02-18T12:16:33.419Z,9.26
2018-02-18T12:17:33.408Z,9.13
2018-02-18T12:18:33.410Z,8.77
2018-02-18T12:19:33.428Z,8.43
2018-02-18T12:20:33.426Z,8.25
2018-02-18T12:21:54.459Z,8.22
2018-02-18T12:22:33.431Z,8.25
2018-02-18T12:23:34.294Z,8.37
2018-02-18T12:24:33.468Z,8.33
2018-02-18T12:25:33.477Z,8.43
2018-02-18T12:26:33.458Z,8.61
2018-02-18T12:27:55.359Z,8.99
2018-02-18T12:28:33.473Z,9.04
2018-02-18T12:29:33.472Z,9.14
2018-02-18T12:30:33.471Z,9.26
2018-02-18T12:31:33.499Z,9.17
2018-02-18T12:32:33.494Z,9.13
2018-02-18T12:33:54.502Z,9.02
2018-02-18T12:34:33.484Z,8.77
2018-02-18T12:35:33.513Z,8.77
2018-02-18T12:36:33.520Z,8.98
2018-02-18T12:37:33.516Z,9.20
2018-02-18T12:38:33.492Z,9.04
2018-02-18T12:39:54.560Z,8.84
2018-02-18T12:40:33.498Z,8.77
2018-02-18T12:41:33.531Z,8.56
2018-02-18T12:42:33.548Z,8.44
2018-02-18T12:43:33.504Z,8.44
2018-02-18T12:44:33.542Z,8.61
2018-02-18T12:45:54.533Z,8.61
2018-02-18T12:46:34.345Z,8.73
2018-02-18T12:47:33.537Z,8.76
2018-02-18T12:48:33.628Z,8.84
2018-02-18T12:49:34.352Z,8.77
2018-02-18T12:50:33.584Z,8.95
2018-02-18T12:51:55.057Z,8.83
2018-02-18T12:52:33.567Z,8.74
2018-02-18T12:53:33.554Z,8.68
2018-02-18T12:54:33.561Z,8.66
2018-02-18T12:55:33.561Z,8.43
2018-02-18T12:56:33.569Z,8.22
2018-02-18T12:57:54.578Z,8.52
2018-02-18T12:58:34.275Z,8.56
2018-02-18T12:59:33.570Z,8.52
2018-02-18T13:00:33.577Z,8.44
2018-02-18T13:01:33.545Z,8.50
2018-02-18T13:02:33.573Z,8.52
2018-02-18T13:03:54.588Z,8.56
2018-02-18T13:04:33.591Z,8.40
2018-02-18T13:05:33.578Z,8.43